Clarksville, TN (37043)

02:41 AM CST del 22 Febbraio 2017 (GMT -0600)
Parkvue Village | | Change Station

Alt. 577 ft 36.50 °N, 87.27 °W | Updated 17 seconds ago

Molto nuvoloso
Molto nuvoloso
55.7 °F
Sembra 55.7 °F
N
3.0
Vento Variabile Vento da Nord

Oggi
Massima -- | Minima -- °F
--% Possibilità di precip.
Ieri
Massima -- | Minima -- °F
Precip. -- in
Pressione 29.88 in
Visibilità 10.0 miglia
Nuvole Sereno
Punto di rugiada 55 °F
Umidità 98%
Piovosità Non disponibile.
Spessore del manto nevoso Non disponibile.
6:28 AM 5:37 PM
Luna calante, 19% visible
METAR KHOP 220758Z AUTO 13004KT 10SM CLR 14/14 A2988 RMK AO2 SLP117 T01430143
Pressione 29.88 in
Visibilità 10.0 miglia
Nuvole Sereno
Punto di rugiada 55 °F
Umidità 98%
Piovosità Non disponibile.
Spessore del manto nevoso Non disponibile.
6:28 AM 5:37 PM
Luna calante, 19% visible
METAR KHOP 220758Z AUTO 13004KT 10SM CLR 14/14 A2988 RMK AO2 SLP117 T01430143

Get Your Daily Forecast Email!

Thanks for signing up!

Be on the lookout for a verification email in your inbox.

You'll start receiving the daily forecast at 8 AM.

×

10-Day Weather Forecast

Almanac

Astronomia

Feb. 22, 2017 Alba Tramonto
Ora attuale
Crepuscolo civile
Crepuscolo nautico
Crepuscolo astronomico
Luna
Estensione della luce visibile
Lunghezza del giorno
Tomorrow will be .
, % of the Moon is Illuminated

Gli estremi di oggi

State Highs State Lows

Community

WunderPhotos

Upload Photos

1,962,540 foto caricate!

WunderBlog® & News

Nearby

Qualità dell'aria

  Qualità dell'aria Indice AQ Inquinante
Not available.

Profondità neve

Stazione Profondità Altitudine

Attività sismica

Città  Distanza Mag. Data & Ora
Minimo Magnitudo Mostrato è 2.5.

Temperature delle acque costiere

Località Temperatura

Stations

Stazioni meteo nelle vicinanze

Ubicazione della stazione Temp. Raffreddamento del vento Punto di rugiada Umidità Vento Precip. Alt. Aggiornato Tipo
                   

Watches & Warnings

There are currently no watches in effect.